Time;durP1;ratioP1;P1;durP2;ratioP2;P2;SDS_P1;SDS_P2;PMS_P1;PMS_P2;Temp;Humidity;BMP_temperature;BMP_pressure;BME280_temperature;BME280_humidity;BME280_pressure;Samples;Min_cycle;Max_cycle;Signal;HPM_P1;HPM_P2
2022/09/08 00:01:23;;;;;;;0.05;0.05;;;20.40;99.90;;;;;;4866686;29;20108;-84
2022/09/08 00:03:50;;;;;;;0.10;0.10;;;19.90;99.90;;;;;;4867003;29;20292;-82
2022/09/08 00:06:21;;;;;;;0.20;0.20;;;19.60;99.90;;;;;;4866411;29;20029;-79
2022/09/08 00:08:55;;;;;;;0.10;0.10;;;19.70;99.90;;;;;;4866628;29;20037;-86
2022/09/08 00:11:23;;;;;;;0.10;0.10;;;19.70;99.90;;;;;;4866673;29;20035;-81
2022/09/08 00:13:50;;;;;;;0.10;0.10;;;19.70;99.90;;;;;;4866566;29;20040;-80
2022/09/08 00:16:20;;;;;;;0.10;0.10;;;19.60;99.90;;;;;;4885361;29;20075;-83
2022/09/08 00:18:51;;;;;;;0.00;0.00;;;19.60;99.90;;;;;;4887341;29;20429;-82
2022/09/08 00:21:27;;;;;;;0.10;0.10;;;19.50;99.90;;;;;;4889055;29;20143;-85
2022/09/08 00:23:52;;;;;;;0.10;0.10;;;19.80;99.90;;;;;;4888106;29;20047;-82
2022/09/08 00:26:25;;;;;;;0.10;0.10;;;19.00;99.90;;;;;;4889148;29;20028;-88
2022/09/08 00:28:54;;;;;;;0.00;0.00;;;18.60;99.90;;;;;;4888865;29;20488;-80
2022/09/08 00:31:20;;;;;;;0.10;0.10;;;17.90;99.90;;;;;;4887782;29;20592;-83
2022/09/08 00:33:49;;;;;;;0.03;0.03;;;17.70;99.90;;;;;;4887742;29;20032;-82
2022/09/08 00:36:18;;;;;;;0.00;0.00;;;17.00;99.90;;;;;;4905711;29;20387;-87
2022/09/08 00:38:52;;;;;;;0.30;0.30;;;17.50;99.90;;;;;;4905789;29;20114;-83
2022/09/08 00:41:20;;;;;;;0.10;0.10;;;17.30;99.90;;;;;;4888798;29;20123;-90
2022/09/08 00:44:00;;;;;;;0.10;0.10;;;17.50;99.90;;;;;;4888168;29;20876;-83
2022/09/08 00:46:41;;;;;;;0.00;0.00;;;17.80;99.90;;;;;;4888952;29;20094;-78
2022/09/08 00:49:21;;;;;;;0.13;0.13;;;17.90;99.90;;;;;;4888484;29;20024;-80
2022/09/08 00:51:53;;;;;;;0.10;0.10;;;18.50;99.90;;;;;;4887890;29;20353;-88
2022/09/08 00:54:20;;;;;;;0.10;0.10;;;19.10;99.90;;;;;;4888882;29;20024;-82
2022/09/08 00:56:47;;;;;;;0.05;0.05;;;18.80;99.90;;;;;;4887980;29;20032;-87
2022/09/08 00:59:23;;;;;;;0.10;0.10;;;19.00;99.90;;;;;;4905480;29;20382;-81
2022/09/08 01:01:53;;;;;;;0.10;0.10;;;19.20;99.90;;;;;;4888036;29;20035;-81
2022/09/08 01:04:20;;;;;;;0.73;0.73;;;;;;;;;;4888102;29;20054;-84
2022/09/08 01:12:58;;;;;;;0.10;0.10;;;19.70;99.90;;;;;;4911626;29;20621;-79
2022/09/08 01:15:27;;;;;;;0.10;0.10;;;19.80;99.90;;;;;;4894661;29;20028;-78
2022/09/08 01:18:01;;;;;;;0.10;0.10;;;19.80;99.90;;;;;;4912665;29;20036;-87
2022/09/08 01:20:38;;;;;;;2.15;2.05;;;19.80;99.90;;;;;;4891438;29;20049;-85
2022/09/08 01:23:55;;;;;;;1.00;1.00;;;19.60;99.90;;;;;;4874453;29;20213;-84
2022/09/08 01:26:59;;;;;;;0.63;0.63;;;19.50;99.90;;;;;;4811622;29;20042;-82
2022/09/08 01:29:25;;;;;;;0.10;0.10;;;19.20;99.90;;;;;;4794975;29;20599;-80
2022/09/08 01:31:59;;;;;;;32.33;3.83;;;19.30;99.90;;;;;;4809530;29;20046;-79
2022/09/08 01:34:40;;;;;;;0.10;0.10;;;19.50;99.90;;;;;;4793769;29;20230;-85
2022/09/08 01:37:15;;;;;;;0.35;0.35;;;19.50;99.90;;;;;;4793881;29;20050;-79
2022/09/08 01:39:46;;;;;;;0.00;0.00;;;19.60;99.90;;;;;;4793863;29;20494;-81
2022/09/08 01:42:15;;;;;;;0.10;0.10;;;19.00;99.90;;;;;;4793563;29;20195;-82
2022/09/08 01:44:43;;;;;;;0.10;0.10;;;18.80;99.90;;;;;;4792848;29;20234;-82
2022/09/08 01:47:10;;;;;;;0.52;0.52;;;19.20;99.90;;;;;;4793660;29;20042;-86
2022/09/08 01:49:41;;;;;;;1.02;1.02;;;18.90;99.90;;;;;;4793341;29;20030;-85
2022/09/08 01:52:14;;;;;;;1.92;1.63;;;18.60;99.90;;;;;;4811479;29;20046;-80
2022/09/08 01:54:42;;;;;;;0.10;0.10;;;;;;;;;;4815130;29;20321;-80
2022/09/08 01:57:12;;;;;;;0.82;0.55;;;18.40;99.90;;;;;;4816987;29;20516;-81
2022/09/08 01:59:44;;;;;;;0.10;0.10;;;17.80;99.90;;;;;;4817252;29;20086;-84
2022/09/08 02:02:10;;;;;;;0.10;0.10;;;17.40;99.90;;;;;;4854673;29;20458;-84
2022/09/08 02:04:38;;;;;;;0.10;0.10;;;17.30;99.90;;;;;;4871229;29;20029;-79
2022/09/08 02:07:04;;;;;;;0.03;0.03;;;;;;;;;;4887814;29;20051;-85
2022/09/08 02:09:29;;;;;;;0.10;0.10;;;18.30;99.90;;;;;;4886752;29;20245;-81
2022/09/08 02:11:58;;;;;;;0.10;0.10;;;18.20;99.90;;;;;;4868225;29;20029;-82
2022/09/08 02:14:27;;;;;;;0.10;0.10;;;18.70;99.90;;;;;;4868060;29;20172;-83
2022/09/08 02:16:55;;;;;;;0.10;0.10;;;18.60;99.90;;;;;;4884653;29;20136;-79
2022/09/08 02:19:24;;;;;;;0.17;0.17;;;18.90;99.90;;;;;;4870665;29;20119;-81
2022/09/08 02:21:50;;;;;;;0.10;0.10;;;19.00;99.90;;;;;;4886573;29;20055;-86
2022/09/08 02:24:24;;;;;;;1.35;1.35;;;18.90;99.90;;;;;;4886511;29;20037;-84
2022/09/08 02:26:52;;;;;;;0.10;0.10;;;19.40;99.90;;;;;;4904204;29;20034;-81
2022/09/08 02:29:18;;;;;;;0.95;0.95;;;;;;;;;;4885744;29;20187;-85
2022/09/08 02:31:47;;;;;;;0.95;0.95;;;;;;;;;;4886425;29;20232;-86
2022/09/08 02:34:18;;;;;;;0.20;0.20;;;19.50;99.90;;;;;;4886339;29;20035;-81
2022/09/08 02:36:46;;;;;;;0.43;0.43;;;19.60;99.90;;;;;;4884466;29;20779;-83
2022/09/08 02:39:18;;;;;;;0.00;0.00;;;19.60;99.90;;;;;;4887000;29;20040;-81
2022/09/08 02:41:46;;;;;;;0.00;0.00;;;19.50;99.90;;;;;;4887991;29;20262;-81
2022/09/08 02:44:15;;;;;;;0.10;0.10;;;19.60;99.90;;;;;;4904448;29;20060;-86
2022/09/08 02:46:42;;;;;;;0.10;0.10;;;19.60;99.90;;;;;;4905053;29;20022;-89
2022/09/08 02:49:12;;;;;;;0.10;0.10;;;19.60;99.90;;;;;;4887621;29;20523;-83
2022/09/08 02:51:43;;;;;;;0.10;0.10;;;19.40;99.90;;;;;;4886795;29;20044;-82
2022/09/08 02:54:15;;;;;;;0.00;0.00;;;19.10;99.90;;;;;;4885629;29;20230;-81
2022/09/08 02:56:43;;;;;;;0.10;0.10;;;19.40;99.90;;;;;;4886069;29;20118;-80
2022/09/08 02:59:10;;;;;;;0.10;0.10;;;19.40;99.90;;;;;;4885531;29;20047;-79
2022/09/08 03:01:37;;;;;;;0.28;0.28;;;19.40;99.90;;;;;;4885605;29;20054;-87
2022/09/08 03:04:10;;;;;;;0.10;0.10;;;19.50;99.90;;;;;;4885253;29;20184;-83
2022/09/08 03:06:43;;;;;;;0.10;0.10;;;19.40;99.90;;;;;;4885782;29;20072;-79
2022/09/08 03:09:12;;;;;;;0.75;0.75;;;20.10;99.90;;;;;;4885689;29;20123;-86
2022/09/08 03:11:40;;;;;;;0.10;0.10;;;19.30;99.90;;;;;;4903479;29;20307;-84
2022/09/08 03:14:06;;;;;;;0.00;0.00;;;20.70;99.90;;;;;;4885622;29;20067;-86
2022/09/08 03:16:37;;;;;;;0.00;0.00;;;19.10;99.90;;;;;;4886338;29;20028;-81
2022/09/08 03:19:05;;;;;;;0.10;0.10;;;19.00;99.90;;;;;;4886867;29;20239;-83
2022/09/08 03:21:37;;;;;;;0.10;0.10;;;19.10;99.90;;;;;;4885057;29;20024;-91
2022/09/08 03:24:26;;;;;;;;;;;;;;;;;;;;;
2022/09/08 03:26:58;;;;;;;0.00;0.00;;;18.70;99.90;;;;;;4903788;29;20016;-91
2022/09/08 03:29:26;;;;;;;0.10;0.10;;;19.20;99.90;;;;;;4910765;23;20436;-87
2022/09/08 03:31:55;;;;;;;0.10;0.10;;;;;;;;;;4902936;29;20502;-80
2022/09/08 03:34:23;;;;;;;1.35;1.13;;;19.00;99.90;;;;;;4902960;29;20268;-81
2022/09/08 03:36:55;;;;;;;0.08;0.08;;;18.10;99.90;;;;;;4885430;29;20095;-80
2022/09/08 03:39:31;;;;;;;0.10;0.10;;;17.50;99.90;;;;;;4885922;29;20427;-80
2022/09/08 03:42:02;;;;;;;0.25;0.25;;;16.60;99.90;;;;;;4886136;29;20028;-87
2022/09/08 03:44:35;;;;;;;0.10;0.10;;;16.30;99.90;;;;;;4885758;29;20040;-81
2022/09/08 03:47:01;;;;;;;0.00;0.00;;;;;;;;;;4885150;29;20020;-85
2022/09/08 03:49:27;;;;;;;0.10;0.10;;;17.10;99.90;;;;;;4887840;29;20268;-82
2022/09/08 03:51:55;;;;;;;0.57;0.57;;;16.70;99.90;;;;;;4906350;29;20030;-87
2022/09/08 03:57:13;;;;;;;0.10;0.10;;;16.20;99.90;;;;;;4906522;29;20076;-79
2022/09/08 03:59:38;;;;;;;0.10;0.10;;;16.60;99.90;;;;;;4889136;29;20040;-85
2022/09/08 04:02:10;;;;;;;0.10;0.10;;;16.30;99.90;;;;;;4906222;29;20119;-78
2022/09/08 04:04:39;;;;;;;0.10;0.10;;;16.30;99.90;;;;;;4888414;29;20032;-81
2022/09/08 04:07:11;;;;;;;0.10;0.10;;;16.40;99.90;;;;;;4888765;29;20028;-83
2022/09/08 04:09:37;;;;;;;0.38;0.38;;;17.30;99.90;;;;;;4906419;29;20507;-87
2022/09/08 04:12:07;;;;;;;0.10;0.10;;;16.50;99.90;;;;;;4905931;29;20459;-86
2022/09/08 04:14:33;;;;;;;0.00;0.00;;;16.90;99.90;;;;;;4906316;29;20031;-86
2022/09/08 04:16:59;;;;;;;0.10;0.10;;;17.50;99.90;;;;;;4906106;29;20535;-88
2022/09/08 04:19:25;;;;;;;0.10;0.10;;;17.20;99.90;;;;;;4906225;29;20044;-91
2022/09/08 04:21:51;;;;;;;0.10;0.10;;;17.20;99.90;;;;;;4888661;29;20111;-86
2022/09/08 04:24:22;;;;;;;0.10;0.10;;;17.80;99.90;;;;;;4905780;29;20186;-85
2022/09/08 04:26:51;;;;;;;1.25;1.15;;;18.10;99.90;;;;;;4888976;29;20031;-87
2022/09/08 04:29:19;;;;;;;0.10;0.10;;;18.20;99.90;;;;;;4905570;29;20052;-79
2022/09/08 04:31:46;;;;;;;0.10;0.10;;;18.40;99.90;;;;;;4906238;29;20028;-81
2022/09/08 04:34:20;;;;;;;0.08;0.08;;;18.50;99.90;;;;;;4905473;29;20108;-81
2022/09/08 04:36:59;;;;;;;0.10;0.10;;;18.70;99.90;;;;;;4888402;29;20590;-85
2022/09/08 04:39:25;;;;;;;0.00;0.00;;;18.80;99.90;;;;;;4905459;29;20103;-88
2022/09/08 04:41:54;;;;;;;0.10;0.10;;;18.90;99.90;;;;;;4888206;29;20024;-84
2022/09/08 04:44:20;;;;;;;0.10;0.10;;;19.00;99.90;;;;;;4888808;29;20026;-82
2022/09/08 04:46:59;;;;;;;0.47;0.47;;;19.10;99.90;;;;;;4889692;29;20055;-82
2022/09/08 04:49:25;;;;;;;0.00;0.00;;;19.00;99.90;;;;;;4889887;29;20386;-81
2022/09/08 04:51:55;;;;;;;3.53;3.33;;;;;;;;;;4906037;29;20135;-82
2022/09/08 04:54:22;;;;;;;0.10;0.10;;;;;;;;;;4905344;29;20059;-90
2022/09/08 04:56:51;;;;;;;1.50;1.40;;;19.30;99.90;;;;;;4887876;29;20068;-86
2022/09/08 04:59:25;;;;;;;0.00;0.00;;;18.70;99.90;;;;;;4887949;29;20044;-79
2022/09/08 05:01:50;;;;;;;0.10;0.10;;;17.70;99.90;;;;;;4904892;29;20028;-80
2022/09/08 05:04:17;;;;;;;0.00;0.00;;;;;;;;;;4888840;29;20575;-80
2022/09/08 05:06:50;;;;;;;0.00;0.00;;;18.90;99.90;;;;;;4887924;29;20074;-83
2022/09/08 05:09:16;;;;;;;0.10;0.10;;;16.40;99.90;;;;;;4887865;29;20115;-84
2022/09/08 05:11:42;;;;;;;0.00;0.00;;;19.00;99.90;;;;;;4905034;29;20111;-83
2022/09/08 05:14:26;;;;;;;0.00;0.00;;;19.10;99.90;;;;;;4888456;29;20043;-81
2022/09/08 05:16:55;;;;;;;0.00;0.00;;;19.30;99.90;;;;;;4888770;29;20119;-85
2022/09/08 05:19:23;;;;;;;1.27;1.17;;;19.30;99.90;;;;;;4886913;29;20550;-79
2022/09/08 05:21:49;;;;;;;1.23;1.23;;;17.80;99.90;;;;;;4887146;29;20667;-86
2022/09/08 05:24:21;;;;;;;0.00;0.00;;;19.20;99.90;;;;;;4887635;29;20199;-86
2022/09/08 05:26:50;;;;;;;0.00;0.00;;;;;;;;;;4886892;29;20024;-82
2022/09/08 05:29:16;;;;;;;0.40;0.40;;;19.40;99.90;;;;;;4887189;29;20313;-80
2022/09/08 05:31:47;;;;;;;0.00;0.00;;;19.50;99.90;;;;;;4904629;29;20051;-83
2022/09/08 05:34:45;;;;;;;0.10;0.10;;;19.50;99.90;;;;;;4887237;29;20028;-80
2022/09/08 05:37:11;;;;;;;0.22;0.22;;;19.50;99.90;;;;;;4899271;29;20068;-86
2022/09/08 05:39:37;;;;;;;0.75;0.75;;;17.80;99.90;;;;;;4888706;29;20491;-80
2022/09/08 05:42:10;;;;;;;0.10;0.10;;;19.50;99.90;;;;;;4889486;29;20236;-79
2022/09/08 05:44:39;;;;;;;0.10;0.10;;;19.40;99.90;;;;;;4887340;29;20294;-80
2022/09/08 05:47:13;;;;;;;0.00;0.00;;;19.00;99.90;;;;;;4903840;29;20164;-85
2022/09/08 05:49:41;;;;;;;0.00;0.00;;;19.00;99.90;;;;;;4887207;29;20071;-79
2022/09/08 05:52:07;;;;;;;0.00;0.00;;;;;;;;;;4887289;29;20039;-81
2022/09/08 05:54:36;;;;;;;0.00;0.00;;;19.20;99.90;;;;;;4904386;29;20020;-79
2022/09/08 05:57:16;;;;;;;0.65;0.65;;;19.10;99.90;;;;;;4886745;29;20028;-85
2022/09/08 05:59:45;;;;;;;0.55;0.55;;;19.80;99.90;;;;;;4904159;29;20271;-80
2022/09/08 06:02:11;;;;;;;0.10;0.10;;;19.30;99.90;;;;;;4886926;29;20032;-80
2022/09/08 06:04:40;;;;;;;0.05;0.05;;;19.40;99.90;;;;;;4903195;29;20514;-80
2022/09/08 06:07:06;;;;;;;0.10;0.10;;;19.70;99.90;;;;;;4886133;29;20132;-81
2022/09/08 06:09:32;;;;;;;0.00;0.00;;;19.70;99.90;;;;;;4885252;29;20032;-82
2022/09/08 06:12:08;;;;;;;0.10;0.10;;;19.70;99.90;;;;;;4884602;29;20304;-80
2022/09/08 06:14:37;;;;;;;0.10;0.10;;;19.70;99.90;;;;;;4885890;29;20040;-83
2022/09/08 06:17:03;;;;;;;1.10;1.10;;;19.80;99.90;;;;;;4886439;29;20067;-87
2022/09/08 06:19:29;;;;;;;0.10;0.10;;;19.80;99.90;;;;;;4903253;29;20410;-79
2022/09/08 06:22:04;;;;;;;0.10;0.10;;;20.20;99.90;;;;;;4885585;29;20024;-79
2022/09/08 06:24:30;;;;;;;0.10;0.10;;;;;;;;;;4886572;29;20099;-79
2022/09/08 06:27:32;;;;;;;0.00;0.00;;;19.70;99.90;;;;;;4886714;29;20032;-83
2022/09/08 06:30:19;;;;;;;0.38;0.38;;;20.00;99.90;;;;;;4887443;29;20060;-79
2022/09/08 06:33:14;;;;;;;0.10;0.10;;;20.20;99.90;;;;;;4885991;29;20319;-81
2022/09/08 06:35:57;;;;;;;0.10;0.10;;;20.20;99.90;;;;;;5097130;27;21081;-86
2022/09/08 06:38:50;;;;;;;0.00;0.00;;;20.70;99.90;;;;;;5096384;28;20562;-82
2022/09/08 06:41:29;;;;;;;0.10;0.10;;;20.40;99.90;;;;;;5095813;28;20513;-83
2022/09/08 06:44:11;;;;;;;0.05;0.05;;;20.40;99.90;;;;;;5082074;28;20028;-80
2022/09/08 06:46:43;;;;;;;0.35;0.35;;;20.40;99.90;;;;;;5080962;28;20027;-87
2022/09/08 06:49:13;;;;;;;0.80;0.80;;;20.30;99.90;;;;;;5078488;28;20019;-80
2022/09/08 06:51:46;;;;;;;0.10;0.10;;;20.50;99.90;;;;;;5079826;28;20028;-79
2022/09/08 06:54:20;;;;;;;0.00;0.00;;;20.60;99.90;;;;;;5078499;28;20031;-79
2022/09/08 06:56:55;;;;;;;0.10;0.10;;;20.40;99.90;;;;;;5077523;28;20309;-80
2022/09/08 06:59:55;;;;;;;0.10;0.10;;;20.90;99.90;;;;;;5078850;28;20048;-80
2022/09/08 07:02:40;;;;;;;0.43;0.43;;;19.70;99.90;;;;;;5095842;28;20016;-76
2022/09/08 07:05:44;;;;;;;0.10;0.10;;;19.80;99.90;;;;;;5096190;28;20020;-87
2022/09/08 07:08:13;;;;;;;;;;;19.80;99.90;;;;;;5058247;28;20032;-82
2022/09/08 07:10:57;;;;;;;0.65;0.65;;;19.50;99.90;;;;;;5065550;28;19915;-85
2022/09/08 07:13:47;;;;;;;0.68;0.68;;;20.00;99.90;;;;;;5065833;28;20044;-79
2022/09/08 07:16:31;;;;;;;0.20;0.20;;;20.30;99.90;;;;;;5069529;28;20143;-80
2022/09/08 07:19:27;;;;;;;0.95;0.95;;;20.60;99.90;;;;;;5067399;28;20016;-78
2022/09/08 07:22:05;;;;;;;0.45;0.45;;;20.60;99.90;;;;;;5065248;28;20020;-81
2022/09/08 07:24:37;;;;;;;0.10;0.10;;;20.50;99.90;;;;;;5064282;28;20017;-79
2022/09/08 07:27:10;;;;;;;0.08;0.08;;;20.60;99.90;;;;;;5057067;23;20088;-80
2022/09/08 07:29:47;;;;;;;0.25;0.25;;;20.50;99.90;;;;;;5038913;28;20025;-78
2022/09/08 07:32:28;;;;;;;0.10;0.10;;;20.70;99.90;;;;;;5035551;28;20037;-80
2022/09/08 07:35:05;;;;;;;0.10;0.10;;;21.00;99.90;;;;;;5038361;28;20198;-80
2022/09/08 07:38:00;;;;;;;0.00;0.00;;;21.00;99.90;;;;;;5034348;28;20029;-80
2022/09/08 07:40:56;;;;;;;0.20;0.20;;;21.10;99.90;;;;;;5033305;28;20211;-83
2022/09/08 07:43:24;;;;;;;0.10;0.10;;;21.40;99.90;;;;;;5035622;28;20722;-82
2022/09/08 07:45:58;;;;;;;0.10;0.10;;;18.60;99.90;;;;;;5031185;28;20044;-79
2022/09/08 07:48:47;;;;;;;3.92;3.80;;;21.00;99.90;;;;;;5022586;28;20494;-83
2022/09/08 07:51:18;;;;;;;0.10;0.10;;;21.50;99.90;;;;;;5023873;28;20542;-78
2022/09/08 07:54:10;;;;;;;0.08;0.08;;;21.40;99.90;;;;;;5023240;28;20029;-79
2022/09/08 07:57:01;;;;;;;0.35;0.32;;;22.40;99.90;;;;;;5021467;28;20519;-81
2022/09/08 07:59:38;;;;;;;0.10;0.10;;;21.50;99.90;;;;;;5023073;28;20026;-78
2022/09/08 08:02:36;;;;;;;0.00;0.00;;;19.60;99.90;;;;;;5021537;28;20630;-81
2022/09/08 08:05:26;;;;;;;0.10;0.10;;;21.70;99.90;;;;;;5023816;28;20028;-82
2022/09/08 08:08:13;;;;;;;0.50;0.50;;;21.80;99.90;;;;;;5040077;28;20023;-83
2022/09/08 08:11:11;;;;;;;1.08;1.08;;;21.90;99.90;;;;;;5041094;28;20029;-80
2022/09/08 08:14:27;;;;;;;0.00;0.00;;;21.70;99.90;;;;;;5040326;28;20550;-78
2022/09/08 08:17:21;;;;;;;1.38;1.27;;;21.90;99.90;;;;;;5041272;28;20052;-85
2022/09/08 08:20:12;;;;;;;0.00;0.00;;;22.00;99.90;;;;;;5040119;28;20120;-79
2022/09/08 08:23:14;;;;;;;0.25;0.25;;;22.00;99.90;;;;;;5039741;28;20029;-79
2022/09/08 08:26:31;;;;;;;0.10;0.10;;;22.00;99.90;;;;;;5041527;28;20025;-84
2022/09/08 08:29:35;;;;;;;0.00;0.00;;;20.60;99.90;;;;;;4999595;28;20045;-81
2022/09/08 08:32:11;;;;;;;0.40;0.40;;;22.20;99.90;;;;;;4995169;28;20743;-82
2022/09/08 08:34:52;;;;;;;0.10;0.10;;;22.40;99.90;;;;;;4982904;28;20101;-87
2022/09/08 08:37:25;;;;;;;0.80;0.80;;;22.30;99.90;;;;;;4982884;28;20032;-81
2022/09/08 08:39:55;;;;;;;0.22;0.22;;;22.50;99.90;;;;;;4981825;28;20053;-79
2022/09/08 08:42:40;;;;;;;0.20;0.20;;;22.00;99.90;;;;;;4982963;28;20036;-85
2022/09/08 08:45:17;;;;;;;0.45;0.45;;;22.70;99.90;;;;;;5000101;28;20029;-80
2022/09/08 08:47:46;;;;;;;0.00;0.00;;;22.80;99.90;;;;;;5000834;28;20029;-79
2022/09/08 08:50:12;;;;;;;0.00;0.00;;;23.00;99.90;;;;;;5002047;28;20024;-78
2022/09/08 08:53:16;;;;;;;0.68;0.63;;;23.30;99.90;;;;;;5002711;28;20026;-81
2022/09/08 08:55:56;;;;;;;0.03;0.03;;;23.40;99.90;;;;;;4983634;28;20547;-76
2022/09/08 08:58:51;;;;;;;0.32;0.32;;;23.40;99.90;;;;;;5000416;28;20742;-80
2022/09/08 09:01:33;;;;;;;0.70;0.65;;;23.40;99.90;;;;;;5001077;28;20037;-89
2022/09/08 09:04:17;;;;;;;1.88;1.77;;;23.60;99.90;;;;;;5000435;28;20736;-89
2022/09/08 09:07:45;;;;;;;0.00;0.00;;;23.60;99.90;;;;;;5038884;28;20033;-83
2022/09/08 09:10:48;;;;;;;0.10;0.10;;;23.90;99.90;;;;;;4985972;28;20125;-85
2022/09/08 09:13:14;;;;;;;0.00;0.00;;;;;;;;;;4984860;28;20022;-81
2022/09/08 09:16:06;;;;;;;0.22;0.22;;;24.30;99.90;;;;;;5001626;28;20308;-84
2022/09/08 09:18:50;;;;;;;0.00;0.00;;;24.50;99.90;;;;;;4984898;28;20062;-79
2022/09/08 09:21:58;;;;;;;0.52;0.40;;;24.90;99.90;;;;;;4999985;28;20034;-81
2022/09/08 09:25:11;;;;;;;0.85;0.85;;;25.20;99.90;;;;;;4942579;28;20031;-83
2022/09/08 09:27:49;;;;;;;0.10;0.10;;;25.40;99.90;;;;;;4941089;29;20051;-80
2022/09/08 09:30:27;;;;;;;0.00;0.00;;;25.40;99.90;;;;;;4940378;29;20114;-80
2022/09/08 09:33:14;;;;;;;0.05;0.05;;;25.50;99.90;;;;;;4939212;29;20320;-80
2022/09/08 09:36:05;;;;;;;2.63;1.95;;;23.30;99.00;;;;;;4938659;29;20074;-82
2022/09/08 09:38:52;;;;;;;0.10;0.10;;;25.80;99.40;;;;;;4925926;29;20039;-79
2022/09/08 09:41:45;;;;;;;0.00;0.00;;;28.00;99.60;;;;;;4952821;28;20529;-79
2022/09/08 09:44:38;;;;;;;0.05;0.05;;;26.20;98.50;;;;;;4978928;28;20169;-83
2022/09/08 09:47:25;;;;;;;0.10;0.10;;;26.30;98.10;;;;;;4978614;28;20090;-86
2022/09/08 09:50:17;;;;;;;0.10;0.10;;;26.80;97.80;;;;;;4978217;28;20229;-80
2022/09/08 09:53:10;;;;;;;0.00;0.00;;;26.80;98.40;;;;;;4977760;28;20734;-83
2022/09/08 09:55:47;;;;;;;;;;;23.70;96.50;;;;;;4964516;28;20074;-82
2022/09/08 09:58:30;;;;;;;0.38;0.38;;;26.80;96.80;;;;;;4979521;28;20420;-86
2022/09/08 10:01:34;;;;;;;0.00;0.00;;;26.70;96.90;;;;;;5019584;28;20499;-81
2022/09/08 10:04:40;;;;;;;0.10;0.10;;;26.80;97.10;;;;;;5040741;28;20292;-81
2022/09/08 10:07:34;;;;;;;0.10;0.10;;;27.20;95.90;;;;;;5048686;22;20058;-81
2022/09/08 10:10:32;;;;;;;0.00;0.00;;;27.20;96.20;;;;;;4985238;28;20029;-82
2022/09/08 10:13:06;;;;;;;0.00;0.00;;;27.20;96.00;;;;;;4984335;28;20030;-80
2022/09/08 10:16:03;;;;;;;0.10;0.10;;;27.30;96.20;;;;;;4985345;28;20042;-79
2022/09/08 10:18:45;;;;;;;0.10;0.10;;;27.50;96.00;;;;;;4984982;28;20029;-80
2022/09/08 10:21:43;;;;;;;0.00;0.00;;;27.60;95.40;;;;;;4985563;28;20108;-81
2022/09/08 10:24:21;;;;;;;0.00;0.00;;;26.90;94.20;;;;;;4983157;28;20089;-82
2022/09/08 10:27:14;;;;;;;0.00;0.00;;;28.00;94.90;;;;;;4987575;23;20401;-81
2022/09/08 10:30:12;;;;;;;0.00;0.00;;;27.80;95.10;;;;;;4939483;29;20031;-84
2022/09/08 10:33:03;;;;;;;0.40;0.40;;;28.10;94.10;;;;;;4923272;29;20039;-81
2022/09/08 10:35:40;;;;;;;1.08;0.98;;;28.20;93.60;;;;;;4924083;29;20584;-81
2022/09/08 10:38:24;;;;;;;0.00;0.00;;;28.50;93.70;;;;;;4921199;29;20031;-82
2022/09/08 10:41:14;;;;;;;0.10;0.10;;;28.70;93.10;;;;;;4921901;29;20408;-85
2022/09/08 10:44:07;;;;;;;0.30;0.30;;;27.70;92.30;;;;;;4923439;28;20042;-80
2022/09/08 10:46:54;;;;;;;11.93;11.27;;;29.00;91.90;;;;;;4922248;29;20050;-81
2022/09/08 10:49:53;;;;;;;0.00;0.00;;;24.90;88.40;;;;;;4939942;29;20054;-81
2022/09/08 10:52:43;;;;;;;0.00;0.00;;;29.30;89.50;;;;;;4922512;29;20031;-82
2022/09/08 10:55:30;;;;;;;0.00;0.00;;;29.40;88.20;;;;;;4923306;29;20331;-82
2022/09/08 10:58:10;;;;;;;0.00;0.00;;;28.90;89.20;;;;;;4923183;29;20035;-81
2022/09/08 11:01:14;;;;;;;0.55;0.22;;;30.20;89.60;;;;;;4949269;28;20485;-84
2022/09/08 11:04:18;;;;;;;0.10;0.10;;;30.10;85.30;;;;;;4979215;28;20038;-83
2022/09/08 11:07:14;;;;;;;0.30;0.30;;;30.30;83.40;;;;;;4981119;28;20331;-81
2022/09/08 11:10:26;;;;;;;0.03;0.03;;;30.40;83.20;;;;;;4982671;28;20152;-81
2022/09/08 11:13:45;;;;;;;0.25;0.25;;;30.60;82.70;;;;;;4980969;28;20198;-81
2022/09/08 11:16:51;;;;;;;0.15;0.15;;;30.70;78.10;;;;;;4978630;28;20050;-81
2022/09/08 11:20:05;;;;;;;0.57;0.57;;;30.90;76.20;;;;;;4978674;28;20026;-84
2022/09/08 11:23:35;;;;;;;0.03;0.03;;;31.00;75.20;;;;;;4908130;29;20389;-81
2022/09/08 11:26:14;;;;;;;0.65;0.65;;;31.10;74.20;;;;;;4831762;29;20121;-81
2022/09/08 11:29:10;;;;;;;0.00;0.00;;;31.20;74.00;;;;;;4829590;29;20046;-85
2022/09/08 11:32:18;;;;;;;0.65;0.65;;;31.40;73.70;;;;;;4916938;29;20047;-77
2022/09/08 11:34:52;;;;;;;0.00;0.00;;;31.30;73.30;;;;;;4925326;29;20114;-81
2022/09/08 11:37:49;;;;;;;0.00;0.00;;;31.50;73.30;;;;;;4908781;29;20024;-82
2022/09/08 11:40:40;;;;;;;0.22;0.10;;;31.70;71.90;;;;;;4923802;29;20750;-78
2022/09/08 11:43:32;;;;;;;0.20;0.20;;;31.90;70.50;;;;;;4907317;29;20028;-84
2022/09/08 11:46:04;;;;;;;0.93;0.57;;;32.80;70.50;;;;;;4906894;29;20686;-80
2022/09/08 11:48:44;;;;;;;0.57;0.57;;;32.40;69.30;;;;;;4908258;29;20024;-78
2022/09/08 11:51:32;;;;;;;1.48;0.43;;;32.70;69.90;;;;;;4908166;29;20023;-79
2022/09/08 11:54:29;;;;;;;0.00;0.00;;;32.40;69.00;;;;;;4907900;29;20710;-78
2022/09/08 11:57:06;;;;;;;0.00;0.00;;;31.80;68.20;;;;;;4922526;29;20028;-78
2022/09/08 11:59:54;;;;;;;;;;;;;;;;;;;;;
2022/09/08 12:02:32;;;;;;;0.65;0.30;;;31.30;68.70;;;;;;4983294;28;20022;-76
2022/09/08 12:05:25;;;;;;;0.10;0.10;;;30.90;69.40;;;;;;4982240;28;20023;-84
2022/09/08 12:08:12;;;;;;;0.00;0.00;;;31.10;69.60;;;;;;4987751;28;20109;-79
2022/09/08 12:14:14;;;;;;;0.32;0.30;;;31.80;67.60;;;;;;4989507;28;20248;-85
2022/09/08 12:16:53;;;;;;;0.00;0.00;;;31.90;67.70;;;;;;4985471;28;20307;-80
2022/09/08 12:19:44;;;;;;;0.45;0.40;;;31.50;67.90;;;;;;4983366;28;20109;-84
2022/09/08 12:22:25;;;;;;;0.10;0.10;;;31.40;67.80;;;;;;4972355;28;20030;-79
2022/09/08 12:25:22;;;;;;;0.55;0.55;;;30.60;67.80;;;;;;4982943;28;20027;-77
2022/09/08 12:28:02;;;;;;;0.00;0.00;;;30.80;67.90;;;;;;4984346;28;20038;-78
2022/09/08 12:30:44;;;;;;;0.47;0.38;;;30.50;69.70;;;;;;4983938;28;20042;-78
2022/09/08 12:33:54;;;;;;;0.00;0.00;;;30.40;70.40;;;;;;4983141;28;20050;-78
2022/09/08 12:36:32;;;;;;;0.22;0.20;;;30.70;69.80;;;;;;4908610;29;20046;-80
2022/09/08 12:39:17;;;;;;;0.00;0.00;;;31.10;68.50;;;;;;4911110;29;20040;-78
2022/09/08 12:42:01;;;;;;;0.10;0.10;;;31.70;68.30;;;;;;4929099;29;20124;-84
2022/09/08 12:44:53;;;;;;;0.00;0.00;;;32.00;67.60;;;;;;4925948;29;20048;-82
2022/09/08 12:47:57;;;;;;;1.15;0.65;;;33.10;67.10;;;;;;4907645;29;20061;-78
2022/09/08 12:51:00;;;;;;;0.17;0.17;;;31.40;65.60;;;;;;4922909;29;20039;-79
2022/09/08 12:54:07;;;;;;;1.95;1.85;;;31.50;66.80;;;;;;4923113;29;20031;-80
2022/09/08 12:56:56;;;;;;;0.75;0.75;;;31.40;67.30;;;;;;4830867;29;20049;-80
2022/09/08 12:59:48;;;;;;;1.98;0.30;;;31.10;67.30;;;;;;4831549;29;20029;-79
2022/09/08 13:02:48;;;;;;;2.75;2.15;;;30.90;68.00;;;;;;4831672;29;20125;-81
2022/09/08 13:05:53;;;;;;;0.00;0.00;;;30.40;68.70;;;;;;4829045;29;20073;-83
2022/09/08 13:08:52;;;;;;;0.00;0.00;;;30.20;68.40;;;;;;4830553;29;20053;-82
2022/09/08 13:11:41;;;;;;;0.40;0.25;;;28.90;68.50;;;;;;4905854;29;20044;-83
2022/09/08 13:14:11;;;;;;;0.13;0.13;;;29.40;69.30;;;;;;4910726;29;20678;-78
2022/09/08 13:17:08;;;;;;;0.20;0.20;;;29.30;70.50;;;;;;4905613;29;20027;-91
2022/09/08 13:20:05;;;;;;;0.00;0.00;;;29.00;70.90;;;;;;4906182;29;20032;-95
2022/09/08 13:22:46;;;;;;;0.65;0.40;;;28.80;71.40;;;;;;4910814;29;20026;-81
2022/09/08 13:25:55;;;;;;;0.10;0.10;;;28.90;71.90;;;;;;4910006;29;20046;-87
2022/09/08 13:28:57;;;;;;;0.00;0.00;;;28.90;71.30;;;;;;4909169;29;20184;-91
2022/09/08 13:31:51;;;;;;;3.20;3.00;;;28.90;71.30;;;;;;4893287;29;20032;-78
2022/09/08 13:35:04;;;;;;;0.45;0.45;;;28.80;70.10;;;;;;4978835;28;20039;-93
2022/09/08 13:37:57;;;;;;;0.38;0.38;;;29.00;70.30;;;;;;4936386;29;20485;-81
2022/09/08 13:40:35;;;;;;;0.00;0.00;;;28.40;69.30;;;;;;4939835;29;20024;-85
2022/09/08 13:43:43;;;;;;;0.10;0.10;;;29.90;70.30;;;;;;4940230;29;20039;-81
2022/09/08 13:46:27;;;;;;;0.10;0.10;;;30.50;69.30;;;;;;4930429;29;20028;-79
2022/09/08 13:49:15;;;;;;;0.68;0.30;;;31.40;67.10;;;;;;4931832;29;20040;-79
2022/09/08 13:52:49;;;;;;;0.20;0.20;;;32.40;65.40;;;;;;4910614;29;20020;-78
2022/09/08 13:55:49;;;;;;;0.00;0.00;;;37.20;65.60;;;;;;4894015;29;20134;-83
2022/09/08 13:58:53;;;;;;;0.30;0.20;;;34.30;60.60;;;;;;4919976;29;20032;-82
2022/09/08 14:01:28;;;;;;;0.00;0.00;;;33.90;62.70;;;;;;4910550;29;20040;-82
2022/09/08 14:04:16;;;;;;;0.15;0.15;;;35.90;62.40;;;;;;4908264;29;20036;-79
2022/09/08 14:06:47;;;;;;;3.65;3.40;;;33.40;62.10;;;;;;4924581;29;20127;-87
2022/09/08 14:09:24;;;;;;;0.67;0.67;;;31.80;62.90;;;;;;4978525;28;20036;-94
2022/09/08 14:12:30;;;;;;;0.00;0.00;;;32.10;62.60;;;;;;4985909;28;20344;-84
2022/09/08 14:15:26;;;;;;;0.35;0.22;;;32.40;62.30;;;;;;4986457;28;20038;-84